<?xml version="1.0" encoding="UTF-8" standalone="no" ?>
<gpx xmlns="http://www.topografix.com/GPX/1/1" xmlns:xsi="http://www.w3.org/2001/XMLSchema-instance" xsi:schemaLocation="http://www.topografix.com/GPX/1/1 http://www.topografix.com/GPX/1/1/gpx.xsd" version="1.1" creator="VisuGPX - https://www.visugpx.com">
  <metadata>
    <name>Neuville sur Oise -- Jouy le Moutier (14,5km)</name>
  </metadata>
  <trk>
    <name><![CDATA[5053730-Neuville sur Oise (14,4km)]]></name>
    <trkseg>
      <trkpt lat="49.01419" lon="2.05791">
        <ele>22.5</ele>
        <time>2019-08-27T06:19:47Z</time>
      </trkpt>
      <trkpt lat="49.01401" lon="2.05753">
        <ele>22</ele>
        <time>2019-08-27T06:20:48Z</time>
      </trkpt>
      <trkpt lat="49.01408" lon="2.05746">
        <ele>21.2</ele>
        <time>2019-08-27T06:26:20Z</time>
      </trkpt>
      <trkpt lat="49.0135" lon="2.05639">
        <ele>21.8</ele>
        <time>2019-08-27T06:33:58Z</time>
      </trkpt>
      <trkpt lat="49.0133" lon="2.056">
        <ele>23.4</ele>
        <time>2019-08-27T06:41:32Z</time>
      </trkpt>
      <trkpt lat="49.01326" lon="2.05647">
        <ele>23.8</ele>
        <time>2019-08-27T07:03:22Z</time>
      </trkpt>
      <trkpt lat="49.01294" lon="2.05708">
        <ele>23.8</ele>
        <time>2019-08-27T07:06:20Z</time>
      </trkpt>
      <trkpt lat="49.0125" lon="2.05752">
        <ele>23</ele>
        <time>2019-08-27T07:08:20Z</time>
      </trkpt>
      <trkpt lat="49.01195" lon="2.05831">
        <ele>21</ele>
        <time>2019-08-27T07:12:21Z</time>
      </trkpt>
      <trkpt lat="49.01161" lon="2.05878">
        <ele>21</ele>
        <time>2019-08-27T07:13:20Z</time>
      </trkpt>
      <trkpt lat="49.01118" lon="2.05951">
        <ele>21.9</ele>
        <time>2019-08-27T07:16:19Z</time>
      </trkpt>
      <trkpt lat="49.01052" lon="2.06049">
        <ele>20</ele>
        <time>2019-08-27T07:17:47Z</time>
      </trkpt>
      <trkpt lat="49.00981" lon="2.0614">
        <ele>22</ele>
        <time>2019-08-27T07:19:17Z</time>
      </trkpt>
      <trkpt lat="49.00848" lon="2.06316">
        <ele>21</ele>
        <time>2019-08-27T07:20:33Z</time>
      </trkpt>
      <trkpt lat="49.00722" lon="2.06483">
        <ele>24</ele>
        <time>2019-08-27T07:25:22Z</time>
      </trkpt>
      <trkpt lat="49.00669" lon="2.06584">
        <ele>22.1</ele>
        <time>2019-08-27T07:26:52Z</time>
      </trkpt>
      <trkpt lat="49.00605" lon="2.06685">
        <ele>21.3</ele>
        <time>2019-08-27T07:29:55Z</time>
      </trkpt>
      <trkpt lat="49.00543" lon="2.06775">
        <ele>21</ele>
        <time>2019-08-27T07:32:53Z</time>
      </trkpt>
      <trkpt lat="49.00471" lon="2.06831">
        <ele>22</ele>
        <time>2019-08-27T07:34:12Z</time>
      </trkpt>
      <trkpt lat="49.00365" lon="2.06945">
        <ele>20</ele>
        <time>2019-08-27T07:35:47Z</time>
      </trkpt>
      <trkpt lat="49.00283" lon="2.07019">
        <ele>20.8</ele>
        <time>2019-08-27T07:37:09Z</time>
      </trkpt>
      <trkpt lat="49.00194" lon="2.07078">
        <ele>21.5</ele>
        <time>2019-08-27T07:38:55Z</time>
      </trkpt>
      <trkpt lat="49.00112" lon="2.07107">
        <ele>22</ele>
        <time>2019-08-27T07:41:23Z</time>
      </trkpt>
      <trkpt lat="49.00096" lon="2.07103">
        <ele>22.8</ele>
        <time>2019-08-27T07:44:36Z</time>
      </trkpt>
      <trkpt lat="48.99951" lon="2.06269">
        <ele>24</ele>
        <time>2019-08-27T07:52:09Z</time>
      </trkpt>
      <trkpt lat="48.99911" lon="2.06075">
        <ele>26</ele>
        <time>2019-08-27T07:58:33Z</time>
      </trkpt>
      <trkpt lat="48.99889" lon="2.05942">
        <ele>28</ele>
        <time>2019-08-27T08:00:29Z</time>
      </trkpt>
      <trkpt lat="48.99859" lon="2.05772">
        <ele>35.8</ele>
        <time>2019-08-27T08:01:22Z</time>
      </trkpt>
      <trkpt lat="48.99844" lon="2.05676">
        <ele>44</ele>
        <time>2019-08-27T08:06:13Z</time>
      </trkpt>
      <trkpt lat="48.99824" lon="2.05616">
        <ele>49</ele>
        <time>2019-08-27T08:11:02Z</time>
      </trkpt>
      <trkpt lat="48.99779" lon="2.05582">
        <ele>53.8</ele>
        <time>2019-08-27T08:42:56Z</time>
      </trkpt>
      <trkpt lat="48.99697" lon="2.05608">
        <ele>50</ele>
        <time>2019-08-27T08:45:56Z</time>
      </trkpt>
      <trkpt lat="48.99635" lon="2.05642">
        <ele>45</ele>
        <time>2019-08-27T08:56:14Z</time>
      </trkpt>
      <trkpt lat="48.99663" lon="2.05736">
        <ele>39</ele>
        <time>2019-08-27T09:02:30Z</time>
      </trkpt>
      <trkpt lat="48.9961" lon="2.05767">
        <ele>40</ele>
        <time>2019-08-27T09:04:28Z</time>
      </trkpt>
      <trkpt lat="48.99587" lon="2.05763">
        <ele>40</ele>
        <time>2019-08-27T09:42:35Z</time>
      </trkpt>
      <trkpt lat="48.99475" lon="2.05657">
        <ele>53.2</ele>
        <time>2019-08-27T09:44:41Z</time>
      </trkpt>
      <trkpt lat="48.99474" lon="2.05622">
        <ele>53</ele>
        <time>2019-08-27T09:48:16Z</time>
      </trkpt>
      <trkpt lat="48.99472" lon="2.05586">
        <ele>51</ele>
        <time>2019-08-27T09:57:01Z</time>
      </trkpt>
      <trkpt lat="48.99424" lon="2.05513">
        <ele>57</ele>
        <time>2019-08-27T10:12:09Z</time>
      </trkpt>
      <trkpt lat="48.99407" lon="2.05428">
        <ele>58.7</ele>
        <time>2019-08-27T10:13:08Z</time>
      </trkpt>
      <trkpt lat="48.99399" lon="2.05312">
        <ele>61</ele>
        <time>2019-08-27T10:20:24Z</time>
      </trkpt>
      <trkpt lat="48.99385" lon="2.0511">
        <ele>68</ele>
        <time>2019-08-27T10:20:41Z</time>
      </trkpt>
      <trkpt lat="48.99385" lon="2.0502">
        <ele>70</ele>
        <time>2019-08-27T10:23:07Z</time>
      </trkpt>
      <trkpt lat="48.99385" lon="2.04912">
        <ele>71</ele>
        <time>2019-08-27T10:24:42Z</time>
      </trkpt>
      <trkpt lat="48.99387" lon="2.04818">
        <ele>75</ele>
        <time>2019-08-27T10:32:02Z</time>
      </trkpt>
      <trkpt lat="48.99365" lon="2.04702">
        <ele>81</ele>
        <time>2019-08-27T10:32:44Z</time>
      </trkpt>
      <trkpt lat="48.99345" lon="2.04535">
        <ele>79</ele>
        <time>2019-08-27T10:34:18Z</time>
      </trkpt>
      <trkpt lat="48.99306" lon="2.04589">
        <ele>84.5</ele>
        <time>2019-08-27T10:35:39Z</time>
      </trkpt>
      <trkpt lat="48.99218" lon="2.04599">
        <ele>89</ele>
        <time>2019-08-27T10:36:30Z</time>
      </trkpt>
      <trkpt lat="48.99048" lon="2.0465">
        <ele>97.5</ele>
        <time>2019-08-27T10:40:09Z</time>
      </trkpt>
      <trkpt lat="48.99039" lon="2.04673">
        <ele>97.3</ele>
        <time>2019-08-27T10:41:24Z</time>
      </trkpt>
      <trkpt lat="48.98997" lon="2.04464">
        <ele>99</ele>
        <time>2019-08-27T10:46:12Z</time>
      </trkpt>
      <trkpt lat="48.98928" lon="2.04039">
        <ele>108</ele>
        <time>2019-08-27T10:47:28Z</time>
      </trkpt>
      <trkpt lat="48.98928" lon="2.03986">
        <ele>107.2</ele>
        <time>2019-08-27T10:48:43Z</time>
      </trkpt>
      <trkpt lat="48.98944" lon="2.0391">
        <ele>105</ele>
        <time>2019-08-27T10:49:31Z</time>
      </trkpt>
      <trkpt lat="48.98965" lon="2.03859">
        <ele>104</ele>
        <time>2019-08-27T10:51:59Z</time>
      </trkpt>
      <trkpt lat="48.98974" lon="2.03829">
        <ele>105.7</ele>
        <time>2019-08-27T10:52:36Z</time>
      </trkpt>
      <trkpt lat="48.99038" lon="2.03552">
        <ele>111</ele>
        <time>2019-08-27T10:56:27Z</time>
      </trkpt>
      <trkpt lat="48.99178" lon="2.03617">
        <ele>98.1</ele>
      </trkpt>
      <trkpt lat="48.99249" lon="2.03629">
        <ele>96</ele>
      </trkpt>
      <trkpt lat="48.99388" lon="2.03635">
        <ele>99.3</ele>
      </trkpt>
      <trkpt lat="48.9957" lon="2.03607">
        <ele>105.5</ele>
      </trkpt>
      <trkpt lat="48.99959" lon="2.03422">
        <ele>99.5</ele>
      </trkpt>
      <trkpt lat="48.99982" lon="2.03301">
        <ele>102</ele>
      </trkpt>
      <trkpt lat="48.99991" lon="2.03179">
        <ele>106.6</ele>
      </trkpt>
      <trkpt lat="49.00169" lon="2.03063">
        <ele>102.5</ele>
      </trkpt>
      <trkpt lat="49.00277" lon="2.02935">
        <ele>97</ele>
      </trkpt>
      <trkpt lat="49.0039" lon="2.02843">
        <ele>95.5</ele>
      </trkpt>
      <trkpt lat="49.00356" lon="2.02728">
        <ele>100</ele>
      </trkpt>
      <trkpt lat="49.00313" lon="2.02661">
        <ele>105.2</ele>
      </trkpt>
      <trkpt lat="49.00252" lon="2.02604">
        <ele>108</ele>
      </trkpt>
      <trkpt lat="49.00169" lon="2.02527">
        <ele>113.1</ele>
      </trkpt>
      <trkpt lat="49.00149" lon="2.02445">
        <ele>124.3</ele>
      </trkpt>
      <trkpt lat="49.00153" lon="2.0236">
        <ele>132.1</ele>
      </trkpt>
      <trkpt lat="49.00207" lon="2.02292">
        <ele>131.8</ele>
      </trkpt>
      <trkpt lat="49.0028" lon="2.02214">
        <ele>131</ele>
      </trkpt>
      <trkpt lat="49.00359" lon="2.02093">
        <ele>126</ele>
      </trkpt>
      <trkpt lat="49.00472" lon="2.01912">
        <ele>120.8</ele>
      </trkpt>
      <trkpt lat="49.00573" lon="2.01814">
        <ele>114</ele>
      </trkpt>
      <trkpt lat="49.00657" lon="2.01771">
        <ele>114</ele>
      </trkpt>
      <trkpt lat="49.00589" lon="2.01476">
        <ele>128.4</ele>
      </trkpt>
      <trkpt lat="49.00682" lon="2.01397">
        <ele>128.5</ele>
      </trkpt>
      <trkpt lat="49.00705" lon="2.01432">
        <ele>125</ele>
      </trkpt>
      <trkpt lat="49.00715" lon="2.01452">
        <ele>125</ele>
      </trkpt>
      <trkpt lat="49.00736" lon="2.01447">
        <ele>124</ele>
      </trkpt>
      <trkpt lat="49.00799" lon="2.01517">
        <ele>118</ele>
      </trkpt>
      <trkpt lat="49.00892" lon="2.01666">
        <ele>109.6</ele>
      </trkpt>
      <trkpt lat="49.00927" lon="2.01714">
        <ele>106.9</ele>
      </trkpt>
      <trkpt lat="49.00956" lon="2.01738">
        <ele>107</ele>
      </trkpt>
      <trkpt lat="49.01009" lon="2.01762">
        <ele>105</ele>
      </trkpt>
      <trkpt lat="49.01119" lon="2.01993">
        <ele>99.4</ele>
      </trkpt>
      <trkpt lat="49.01148" lon="2.01977">
        <ele>99</ele>
      </trkpt>
      <trkpt lat="49.0124" lon="2.02249">
        <ele>94.2</ele>
      </trkpt>
      <trkpt lat="49.01239" lon="2.02273">
        <ele>94.2</ele>
      </trkpt>
      <trkpt lat="49.01316" lon="2.02451">
        <ele>94.4</ele>
      </trkpt>
      <trkpt lat="49.01308" lon="2.02488">
        <ele>94</ele>
      </trkpt>
      <trkpt lat="49.01313" lon="2.02525">
        <ele>94</ele>
      </trkpt>
      <trkpt lat="49.01305" lon="2.02536">
        <ele>93</ele>
      </trkpt>
      <trkpt lat="49.01313" lon="2.02565">
        <ele>93</ele>
      </trkpt>
      <trkpt lat="49.01301" lon="2.02599">
        <ele>93</ele>
      </trkpt>
      <trkpt lat="49.0128" lon="2.02645">
        <ele>92.5</ele>
      </trkpt>
      <trkpt lat="49.01319" lon="2.02701">
        <ele>91</ele>
      </trkpt>
      <trkpt lat="49.01348" lon="2.02754">
        <ele>89.3</ele>
      </trkpt>
      <trkpt lat="49.01358" lon="2.02749">
        <ele>90</ele>
      </trkpt>
      <trkpt lat="49.01385" lon="2.02727">
        <ele>89</ele>
      </trkpt>
      <trkpt lat="49.0141" lon="2.02692">
        <ele>89</ele>
      </trkpt>
      <trkpt lat="49.01505" lon="2.02586">
        <ele>86.9</ele>
      </trkpt>
      <trkpt lat="49.01538" lon="2.02629">
        <ele>87</ele>
      </trkpt>
      <trkpt lat="49.0152" lon="2.02655">
        <ele>88.8</ele>
      </trkpt>
      <trkpt lat="49.01485" lon="2.02657">
        <ele>91.4</ele>
      </trkpt>
      <trkpt lat="49.01468" lon="2.02702">
        <ele>91</ele>
      </trkpt>
      <trkpt lat="49.01473" lon="2.02749">
        <ele>90.8</ele>
      </trkpt>
      <trkpt lat="49.01491" lon="2.0277">
        <ele>90.4</ele>
      </trkpt>
      <trkpt lat="49.01501" lon="2.02797">
        <ele>88</ele>
      </trkpt>
      <trkpt lat="49.01501" lon="2.02822">
        <ele>88.8</ele>
      </trkpt>
      <trkpt lat="49.01529" lon="2.02864">
        <ele>85.8</ele>
      </trkpt>
      <trkpt lat="49.01555" lon="2.02906">
        <ele>85</ele>
      </trkpt>
      <trkpt lat="49.01553" lon="2.02943">
        <ele>84</ele>
      </trkpt>
      <trkpt lat="49.0154" lon="2.02969">
        <ele>83.3</ele>
      </trkpt>
      <trkpt lat="49.01576" lon="2.03021">
        <ele>80.2</ele>
      </trkpt>
      <trkpt lat="49.01588" lon="2.02979">
        <ele>81</ele>
      </trkpt>
      <trkpt lat="49.01599" lon="2.03005">
        <ele>79</ele>
      </trkpt>
      <trkpt lat="49.0162" lon="2.03004">
        <ele>78.1</ele>
      </trkpt>
      <trkpt lat="49.0164" lon="2.03003">
        <ele>77.5</ele>
      </trkpt>
      <trkpt lat="49.01658" lon="2.02989">
        <ele>79</ele>
      </trkpt>
      <trkpt lat="49.01665" lon="2.02997">
        <ele>77</ele>
      </trkpt>
      <trkpt lat="49.01669" lon="2.02979">
        <ele>79.9</ele>
      </trkpt>
      <trkpt lat="49.01679" lon="2.03001">
        <ele>78.2</ele>
      </trkpt>
      <trkpt lat="49.01681" lon="2.03097">
        <ele>76.9</ele>
      </trkpt>
      <trkpt lat="49.01696" lon="2.03121">
        <ele>78</ele>
      </trkpt>
      <trkpt lat="49.0172" lon="2.03129">
        <ele>79</ele>
      </trkpt>
      <trkpt lat="49.01742" lon="2.03187">
        <ele>79</ele>
      </trkpt>
      <trkpt lat="49.01766" lon="2.03225">
        <ele>75</ele>
      </trkpt>
      <trkpt lat="49.01777" lon="2.03247">
        <ele>74.6</ele>
      </trkpt>
      <trkpt lat="49.0177" lon="2.0328">
        <ele>67</ele>
      </trkpt>
      <trkpt lat="49.0177" lon="2.03306">
        <ele>64</ele>
      </trkpt>
      <trkpt lat="49.01775" lon="2.03324">
        <ele>63</ele>
      </trkpt>
      <trkpt lat="49.01788" lon="2.03329">
        <ele>63.6</ele>
      </trkpt>
      <trkpt lat="49.01829" lon="2.03196">
        <ele>76</ele>
      </trkpt>
      <trkpt lat="49.01853" lon="2.03008">
        <ele>80.9</ele>
      </trkpt>
      <trkpt lat="49.01865" lon="2.02972">
        <ele>81</ele>
      </trkpt>
      <trkpt lat="49.01878" lon="2.03095">
        <ele>79.8</ele>
      </trkpt>
      <trkpt lat="49.01873" lon="2.03261">
        <ele>72.2</ele>
      </trkpt>
      <trkpt lat="49.01878" lon="2.03321">
        <ele>71.5</ele>
      </trkpt>
      <trkpt lat="49.01881" lon="2.0336">
        <ele>67.1</ele>
      </trkpt>
      <trkpt lat="49.019" lon="2.03417">
        <ele>67.9</ele>
      </trkpt>
      <trkpt lat="49.01917" lon="2.0346">
        <ele>67</ele>
      </trkpt>
      <trkpt lat="49.01931" lon="2.03524">
        <ele>64</ele>
      </trkpt>
      <trkpt lat="49.01953" lon="2.03592">
        <ele>61.6</ele>
      </trkpt>
      <trkpt lat="49.0197" lon="2.03653">
        <ele>62</ele>
      </trkpt>
      <trkpt lat="49.01995" lon="2.03696">
        <ele>59.1</ele>
      </trkpt>
      <trkpt lat="49.02022" lon="2.03758">
        <ele>61.2</ele>
      </trkpt>
      <trkpt lat="49.02023" lon="2.03802">
        <ele>59.7</ele>
      </trkpt>
      <trkpt lat="49.02027" lon="2.03843">
        <ele>53.1</ele>
      </trkpt>
      <trkpt lat="49.0202" lon="2.03894">
        <ele>50</ele>
      </trkpt>
      <trkpt lat="49.02018" lon="2.03977">
        <ele>40</ele>
      </trkpt>
      <trkpt lat="49.02012" lon="2.03994">
        <ele>39</ele>
      </trkpt>
      <trkpt lat="49.01963" lon="2.04002">
        <ele>34.8</ele>
      </trkpt>
      <trkpt lat="49.01925" lon="2.0408">
        <ele>33</ele>
      </trkpt>
      <trkpt lat="49.01948" lon="2.04183">
        <ele>30</ele>
      </trkpt>
      <trkpt lat="49.01973" lon="2.04267">
        <ele>25.9</ele>
      </trkpt>
      <trkpt lat="49.02061" lon="2.04553">
        <ele>21.2</ele>
      </trkpt>
      <trkpt lat="49.02007" lon="2.0461">
        <ele>21</ele>
      </trkpt>
      <trkpt lat="49.01981" lon="2.04638">
        <ele>21</ele>
      </trkpt>
      <trkpt lat="49.01928" lon="2.04709">
        <ele>25</ele>
      </trkpt>
      <trkpt lat="49.01903" lon="2.04734">
        <ele>27.6</ele>
      </trkpt>
      <trkpt lat="49.0188" lon="2.04762">
        <ele>29</ele>
      </trkpt>
      <trkpt lat="49.01853" lon="2.04803">
        <ele>29</ele>
      </trkpt>
      <trkpt lat="49.01827" lon="2.04834">
        <ele>27.8</ele>
      </trkpt>
      <trkpt lat="49.01803" lon="2.04874">
        <ele>27.2</ele>
      </trkpt>
      <trkpt lat="49.01744" lon="2.04968">
        <ele>27</ele>
      </trkpt>
      <trkpt lat="49.017" lon="2.0502">
        <ele>26</ele>
      </trkpt>
      <trkpt lat="49.0163" lon="2.05147">
        <ele>24</ele>
      </trkpt>
      <trkpt lat="49.01551" lon="2.05258">
        <ele>21</ele>
      </trkpt>
      <trkpt lat="49.0151" lon="2.05318">
        <ele>20</ele>
      </trkpt>
      <trkpt lat="49.01478" lon="2.05389">
        <ele>22</ele>
      </trkpt>
      <trkpt lat="49.01458" lon="2.05434">
        <ele>23</ele>
      </trkpt>
      <trkpt lat="49.01426" lon="2.05512">
        <ele>20.9</ele>
      </trkpt>
      <trkpt lat="49.01393" lon="2.05571">
        <ele>20</ele>
      </trkpt>
      <trkpt lat="49.01367" lon="2.05556">
        <ele>22</ele>
      </trkpt>
      <trkpt lat="49.01329" lon="2.05576">
        <ele>23.2</ele>
      </trkpt>
      <trkpt lat="49.01328" lon="2.05592">
        <ele>23.3</ele>
      </trkpt>
      <trkpt lat="49.01405" lon="2.0573">
        <ele>21</ele>
      </trkpt>
      <trkpt lat="49.01423" lon="2.0579">
        <ele>22.5</ele>
      </trkpt>
    </trkseg>
  </trk>
</gpx>